Terminal Aerodrome Forecast
Issued by NWS

Home | Current Version | Previous Version | Text Only | Print | Product List | Glossary On
Versions: 1 2 3 4 5 6 7 8 9 10 11 12 13 14 15 16 17 18 19 20 21
000
FTAK31 PANC 200531
TAFADQ
TAF
PADQ 200531Z 2006/2106 02017G24KT 6SM -RA SCT008 OVC015
     FM201200 01014G20KT P6SM -SHRA SCT015 OVC025
     FM201500 35015KT P6SM VCSH SCT025 BKN035
     FM210400 03015G22KT 6SM -RA BR SCT008 OVC015=

USA.gov is the U.S. government's official web portal to all federal, state and local government web resources and services.